Time;durP1;ratioP1;P1;durP2;ratioP2;P2;SDS_P1;SDS_P2;PMS_P1;PMS_P2;Temp;Humidity;BMP_temperature;BMP_pressure;BME280_temperature;BME280_humidity;BME280_pressure;Samples;Min_cycle;Max_cycle;Signal;HPM_P1;HPM_P2
2023/06/30 00:00:56;;;;;;;4.30;1.52;;;;;;;;;;5105424;28;20042;-54
2023/06/30 00:03:22;;;;;;;4.32;2.00;;;;;;;;;;5105518;28;20024;-56
2023/06/30 00:05:49;;;;;;;7.35;2.67;;;;;;;;;;5105120;28;20385;-49
2023/06/30 00:08:16;;;;;;;5.15;3.28;;;;;;;;;;5105401;28;20031;-55
2023/06/30 00:10:43;;;;;;;5.40;3.05;;;;;;;;;;5105237;28;20019;-47
2023/06/30 00:13:09;;;;;;;6.43;2.80;;;;;;;;;;5105188;28;20099;-53
2023/06/30 00:15:36;;;;;;;3.78;2.50;;;;;;;;;;5105142;28;20024;-52
2023/06/30 00:18:02;;;;;;;4.55;2.08;;;;;;;;;;5104991;28;20085;-55
2023/06/30 00:20:29;;;;;;;3.28;1.88;;;;;;;;;;5104859;28;20032;-56
2023/06/30 00:22:55;;;;;;;3.65;1.95;;;;;;;;;;5105061;28;20034;-53
2023/06/30 00:25:24;;;;;;;3.72;1.77;;;;;;;;;;5104887;28;20016;-55
2023/06/30 00:27:51;;;;;;;3.92;1.83;;;;;;;;;;5104792;28;20043;-59
2023/06/30 00:30:18;;;;;;;5.05;1.88;;;;;;;;;;5104854;28;20026;-53
2023/06/30 00:32:44;;;;;;;3.45;1.73;;;;;;;;;;5104243;28;20063;-52
2023/06/30 00:35:11;;;;;;;3.30;1.70;;;;;;;;;;5104551;28;20036;-53
2023/06/30 00:37:37;;;;;;;4.05;1.83;;;;;;;;;;5104824;28;20028;-53
2023/06/30 00:40:04;;;;;;;3.55;1.70;;;;;;;;;;5104800;28;20030;-55
2023/06/30 00:42:30;;;;;;;3.72;1.85;;;;;;;;;;5104453;28;20031;-58
2023/06/30 00:44:59;;;;;;;4.07;1.95;;;;;;;;;;5104601;28;20020;-54
2023/06/30 00:47:26;;;;;;;3.88;2.08;;;;;;;;;;5104534;28;20035;-56
2023/06/30 00:49:53;;;;;;;5.05;2.22;;;;;;;;;;5101697;28;20144;-48
2023/06/30 00:52:20;;;;;;;3.97;2.28;;;;;;;;;;5100081;28;20315;-48
2023/06/30 00:54:48;;;;;;;8.90;2.30;;;;;;;;;;5101369;28;20034;-45
2023/06/30 00:57:14;;;;;;;5.28;2.15;;;;;;;;;;5104424;28;20028;-54
2023/06/30 00:59:41;;;;;;;3.17;1.95;;;;;;;;;;5104243;28;20067;-47
2023/06/30 01:02:10;;;;;;;7.18;2.05;;;;;;;;;;5097887;28;20024;-54
2023/06/30 01:04:40;;;;;;;6.95;2.20;;;;;;;;;;5091975;28;20051;-44
2023/06/30 01:07:16;;;;;;;4.18;2.10;;;;;;;;;;5087901;28;20020;-48
2023/06/30 01:09:57;;;;;;;3.83;2.60;;;;;;;;;;5095006;28;20028;-45
2023/06/30 01:12:24;;;;;;;5.25;2.47;;;;;;;;;;5084131;28;20029;-47
2023/06/30 01:14:50;;;;;;;5.22;2.05;;;;;;;;;;5083922;28;20028;-44
2023/06/30 01:17:18;;;;;;;4.63;1.55;;;;;;;;;;5083699;28;20033;-46
2023/06/30 01:19:45;;;;;;;4.20;1.30;;;;;;;;;;5083969;28;20044;-45
2023/06/30 01:22:43;;;;;;;4.13;1.40;;;;;;;;;;5096647;28;20074;-45
2023/06/30 01:25:12;;;;;;;2.88;1.27;;;;;;;;;;5054923;28;20377;-50
2023/06/30 01:27:40;;;;;;;3.75;1.00;;;;;;;;;;5091053;28;20095;-46
2023/06/30 01:30:08;;;;;;;4.32;0.93;;;;;;;;;;5094486;28;20020;-43
2023/06/30 01:32:35;;;;;;;2.42;0.90;;;;;;;;;;5102298;28;20024;-44
2023/06/30 01:35:02;;;;;;;2.25;1.02;;;;;;;;;;5103860;28;20032;-46
2023/06/30 01:37:28;;;;;;;1.98;0.88;;;;;;;;;;5103860;28;20050;-47
2023/06/30 01:39:55;;;;;;;5.53;1.00;;;;;;;;;;5097113;28;20020;-43
2023/06/30 01:42:22;;;;;;;4.13;0.90;;;;;;;;;;5086388;28;20024;-55
2023/06/30 01:44:48;;;;;;;3.53;0.98;;;;;;;;;;5084712;28;20052;-48
2023/06/30 01:47:15;;;;;;;2.13;1.20;;;;;;;;;;5087550;28;20071;-48
2023/06/30 01:49:42;;;;;;;2.33;0.85;;;;;;;;;;5087573;28;20032;-47
2023/06/30 01:52:09;;;;;;;2.55;1.10;;;;;;;;;;5087349;28;20044;-44
2023/06/30 01:54:36;;;;;;;4.45;1.33;;;;;;;;;;5087586;28;20029;-48
2023/06/30 01:57:02;;;;;;;4.60;1.30;;;;;;;;;;5087452;28;20032;-47
2023/06/30 01:59:29;;;;;;;3.47;1.30;;;;;;;;;;5087741;28;20044;-46
2023/06/30 02:01:56;;;;;;;4.47;1.60;;;;;;;;;;5087257;28;20023;-48
2023/06/30 02:04:22;;;;;;;9.85;1.50;;;;;;;;;;5087668;28;20032;-54
2023/06/30 02:06:49;;;;;;;4.60;1.30;;;;;;;;;;5087355;28;20028;-50
2023/06/30 02:09:16;;;;;;;3.85;1.45;;;;;;;;;;5087422;28;20039;-48
2023/06/30 02:11:42;;;;;;;6.22;1.38;;;;;;;;;;5087011;28;20091;-44
2023/06/30 02:14:09;;;;;;;3.13;1.42;;;;;;;;;;5087405;28;20040;-45
2023/06/30 02:16:35;;;;;;;3.10;1.45;;;;;;;;;;5087227;28;20021;-51
2023/06/30 02:19:03;;;;;;;4.18;1.30;;;;;;;;;;5086971;28;20043;-42
2023/06/30 02:21:30;;;;;;;2.38;1.20;;;;;;;;;;5094550;28;20105;-48
2023/06/30 02:23:56;;;;;;;2.22;1.20;;;;;;;;;;5090047;28;20043;-49
2023/06/30 02:26:23;;;;;;;2.75;1.27;;;;;;;;;;5096012;28;20211;-44
2023/06/30 02:28:49;;;;;;;3.58;1.08;;;;;;;;;;5089766;28;20063;-46
2023/06/30 02:31:17;;;;;;;4.60;1.10;;;;;;;;;;5086845;28;20070;-50
2023/06/30 02:33:44;;;;;;;2.20;0.90;;;;;;;;;;5086729;28;20049;-44
2023/06/30 02:36:10;;;;;;;4.43;1.20;;;;;;;;;;5086768;28;20036;-48
2023/06/30 02:38:37;;;;;;;3.63;1.00;;;;;;;;;;5086913;28;20029;-48
2023/06/30 02:41:03;;;;;;;2.85;0.95;;;;;;;;;;5086574;28;20083;-45
2023/06/30 02:43:30;;;;;;;2.72;0.70;;;;;;;;;;5086725;28;20328;-43
2023/06/30 02:45:56;;;;;;;4.28;1.00;;;;;;;;;;5086710;28;20040;-50
2023/06/30 02:48:23;;;;;;;2.03;0.85;;;;;;;;;;5086811;28;20032;-51
2023/06/30 02:50:50;;;;;;;2.90;0.85;;;;;;;;;;5086402;28;20052;-49
2023/06/30 02:53:16;;;;;;;3.28;1.00;;;;;;;;;;5086542;28;20079;-48
2023/06/30 02:55:43;;;;;;;2.38;0.70;;;;;;;;;;5094282;28;20050;-49
2023/06/30 02:58:10;;;;;;;2.65;1.10;;;;;;;;;;5106320;28;20103;-49
2023/06/30 03:00:36;;;;;;;2.72;1.00;;;;;;;;;;5106758;28;20039;-45
2023/06/30 03:03:04;;;;;;;4.28;0.90;;;;;;;;;;5106722;28;20312;-50
2023/06/30 03:05:33;;;;;;;5.28;0.90;;;;;;;;;;5106397;28;20038;-50
2023/06/30 03:08:00;;;;;;;3.17;0.85;;;;;;;;;;5106027;28;20027;-51
2023/06/30 03:10:27;;;;;;;3.25;0.90;;;;;;;;;;5097764;28;20044;-43
2023/06/30 03:12:53;;;;;;;3.22;0.75;;;;;;;;;;5086167;28;20049;-52
2023/06/30 03:15:20;;;;;;;2.58;0.70;;;;;;;;;;5085983;28;20036;-47
2023/06/30 03:17:46;;;;;;;3.40;0.90;;;;;;;;;;5085958;28;20037;-53
2023/06/30 03:20:13;;;;;;;2.72;0.60;;;;;;;;;;5085916;28;20028;-49
2023/06/30 03:22:40;;;;;;;4.05;1.00;;;;;;;;;;5085725;28;20201;-50
2023/06/30 03:25:08;;;;;;;2.45;0.70;;;;;;;;;;5085808;28;20039;-50
2023/06/30 03:27:35;;;;;;;4.40;0.77;;;;;;;;;;5085955;28;20060;-43
2023/06/30 03:30:04;;;;;;;3.03;0.70;;;;;;;;;;5085651;28;20016;-47
2023/06/30 03:32:34;;;;;;;4.47;0.88;;;;;;;;;;5085712;28;20309;-49
2023/06/30 03:35:02;;;;;;;2.38;0.70;;;;;;;;;;5085368;28;20083;-45
2023/06/30 03:37:30;;;;;;;2.47;0.70;;;;;;;;;;5085591;28;20036;-43
2023/06/30 03:39:57;;;;;;;3.20;0.77;;;;;;;;;;5085666;28;20129;-45
2023/06/30 03:42:24;;;;;;;3.83;0.85;;;;;;;;;;5085291;28;20328;-47
2023/06/30 03:44:50;;;;;;;2.55;0.70;;;;;;;;;;5085504;28;20212;-49
2023/06/30 03:47:17;;;;;;;4.53;0.60;;;;;;;;;;5085330;28;20091;-53
2023/06/30 03:49:44;;;;;;;2.53;0.63;;;;;;;;;;5085451;28;20040;-50
2023/06/30 03:52:10;;;;;;;3.17;0.80;;;;;;;;;;5085332;28;20028;-45
2023/06/30 03:54:37;;;;;;;4.40;0.70;;;;;;;;;;5085378;28;20179;-48
2023/06/30 03:57:04;;;;;;;6.25;0.60;;;;;;;;;;5085134;28;20043;-46
2023/06/30 03:59:30;;;;;;;2.10;0.70;;;;;;;;;;5085048;28;20020;-43
2023/06/30 04:01:57;;;;;;;4.30;0.70;;;;;;;;;;5085133;28;20087;-49
2023/06/30 04:04:24;;;;;;;2.38;0.75;;;;;;;;;;5085426;28;20044;-47
2023/06/30 04:06:51;;;;;;;4.63;0.70;;;;;;;;;;5084268;28;20023;-45
2023/06/30 04:09:17;;;;;;;2.38;0.60;;;;;;;;;;5085147;28;20036;-46
2023/06/30 04:11:44;;;;;;;4.32;0.93;;;;;;;;;;5084894;28;20336;-43
2023/06/30 04:14:10;;;;;;;5.85;0.90;;;;;;;;;;5085058;28;20066;-44
2023/06/30 04:16:37;;;;;;;1.85;0.80;;;;;;;;;;5084755;28;20052;-45
2023/06/30 04:19:04;;;;;;;3.70;0.77;;;;;;;;;;5085178;28;20044;-46
2023/06/30 04:21:30;;;;;;;5.05;0.98;;;;;;;;;;5084518;28;20220;-47
2023/06/30 04:23:57;;;;;;;3.22;0.80;;;;;;;;;;5084933;28;20036;-50
2023/06/30 04:26:24;;;;;;;2.08;0.80;;;;;;;;;;5084564;28;20043;-46
2023/06/30 04:28:50;;;;;;;2.95;0.70;;;;;;;;;;5084772;28;20083;-42
2023/06/30 04:31:18;;;;;;;2.42;0.70;;;;;;;;;;5084463;28;20043;-46
2023/06/30 04:33:44;;;;;;;3.08;0.90;;;;;;;;;;5084294;28;20112;-45
2023/06/30 04:36:11;;;;;;;3.25;0.80;;;;;;;;;;5084306;28;20087;-42
2023/06/30 04:38:38;;;;;;;3.25;0.70;;;;;;;;;;5084752;28;20040;-47
2023/06/30 04:41:04;;;;;;;3.38;0.60;;;;;;;;;;5084440;28;20029;-45
2023/06/30 04:43:31;;;;;;;8.77;1.10;;;;;;;;;;5084400;28;20044;-45
2023/06/30 04:45:57;;;;;;;3.95;0.80;;;;;;;;;;5084373;28;20028;-45
2023/06/30 04:48:24;;;;;;;5.82;0.82;;;;;;;;;;5084515;28;20041;-47
2023/06/30 04:50:51;;;;;;;4.60;0.77;;;;;;;;;;5084048;28;20038;-43
2023/06/30 04:53:17;;;;;;;1.80;0.75;;;;;;;;;;5084396;28;20055;-48
2023/06/30 04:55:44;;;;;;;2.28;0.85;;;;;;;;;;5084114;28;20434;-46
2023/06/30 04:58:11;;;;;;;3.20;0.70;;;;;;;;;;5084119;28;20025;-51
2023/06/30 05:00:37;;;;;;;4.13;0.80;;;;;;;;;;5084101;28;20024;-53
2023/06/30 05:03:04;;;;;;;2.33;0.70;;;;;;;;;;5084142;28;20036;-50
2023/06/30 05:05:30;;;;;;;3.85;0.98;;;;;;;;;;5083829;28;20034;-48
2023/06/30 05:07:57;;;;;;;7.57;1.30;;;;;;;;;;5084150;28;20028;-53
2023/06/30 05:10:23;;;;;;;5.07;0.98;;;;;;;;;;5083955;28;20074;-52
2023/06/30 05:12:50;;;;;;;3.40;1.00;;;;;;;;;;5084097;28;20024;-54
2023/06/30 05:15:17;;;;;;;3.50;0.80;;;;;;;;;;5083871;28;20087;-52
2023/06/30 05:17:43;;;;;;;3.17;0.63;;;;;;;;;;5083907;28;20036;-52
2023/06/30 05:20:10;;;;;;;4.38;0.98;;;;;;;;;;5083714;28;20119;-47
2023/06/30 05:22:38;;;;;;;5.18;0.90;;;;;;;;;;5083698;28;20074;-46
2023/06/30 05:25:05;;;;;;;5.15;0.80;;;;;;;;;;5083815;28;20055;-46
2023/06/30 05:27:31;;;;;;;3.50;0.60;;;;;;;;;;5083830;28;20049;-45
2023/06/30 05:29:58;;;;;;;5.72;0.80;;;;;;;;;;5083665;28;20024;-45
2023/06/30 05:32:24;;;;;;;5.30;0.82;;;;;;;;;;5083812;28;20039;-49
2023/06/30 05:34:51;;;;;;;5.32;0.73;;;;;;;;;;5083631;28;20090;-44
2023/06/30 05:37:18;;;;;;;2.58;0.85;;;;;;;;;;5083568;28;20043;-44
2023/06/30 05:39:44;;;;;;;3.67;0.85;;;;;;;;;;5083781;28;20036;-43
2023/06/30 05:42:11;;;;;;;4.93;0.88;;;;;;;;;;5083614;28;20026;-44
2023/06/30 05:44:38;;;;;;;2.45;0.70;;;;;;;;;;5083394;28;20301;-41
2023/06/30 05:47:04;;;;;;;4.03;0.82;;;;;;;;;;5083691;28;20032;-42
2023/06/30 05:49:31;;;;;;;6.40;0.68;;;;;;;;;;5091235;28;20028;-45
2023/06/30 05:51:57;;;;;;;4.72;0.70;;;;;;;;;;5103703;28;20091;-53
2023/06/30 05:54:24;;;;;;;4.40;0.80;;;;;;;;;;5104282;28;20121;-45
2023/06/30 05:56:51;;;;;;;6.30;0.93;;;;;;;;;;5103738;28;20020;-45
2023/06/30 05:59:17;;;;;;;5.35;0.90;;;;;;;;;;5104101;28;20108;-45
2023/06/30 06:01:44;;;;;;;5.95;0.70;;;;;;;;;;5103820;28;20046;-45
2023/06/30 06:04:11;;;;;;;4.93;0.70;;;;;;;;;;5104067;28;20031;-43
2023/06/30 06:06:38;;;;;;;4.07;0.75;;;;;;;;;;5103607;28;20028;-47
2023/06/30 06:09:05;;;;;;;2.55;0.80;;;;;;;;;;5104070;28;20318;-43
2023/06/30 06:11:31;;;;;;;7.18;0.60;;;;;;;;;;5103882;28;20038;-43
2023/06/30 06:13:58;;;;;;;4.53;0.70;;;;;;;;;;5103822;28;20271;-43
2023/06/30 06:16:24;;;;;;;3.28;0.88;;;;;;;;;;5103600;28;20040;-43
2023/06/30 06:18:51;;;;;;;4.40;0.70;;;;;;;;;;5104030;28;20034;-43
2023/06/30 06:21:18;;;;;;;3.95;0.73;;;;;;;;;;5103493;28;20028;-46
2023/06/30 06:23:44;;;;;;;3.42;0.80;;;;;;;;;;5103755;28;20036;-45
2023/06/30 06:26:11;;;;;;;5.43;0.95;;;;;;;;;;5103431;28;20016;-46
2023/06/30 06:28:39;;;;;;;2.20;0.38;;;;;;;;;;5103797;28;20266;-43
2023/06/30 06:31:05;;;;;;;1.73;0.57;;;;;;;;;;5105303;28;20043;-48
2023/06/30 06:33:32;;;;;;;3.22;0.70;;;;;;;;;;5107045;28;20115;-48
2023/06/30 06:35:59;;;;;;;5.65;0.82;;;;;;;;;;5107055;28;20028;-43
2023/06/30 06:38:25;;;;;;;4.38;0.70;;;;;;;;;;5106866;28;20111;-44
2023/06/30 06:40:53;;;;;;;8.70;0.88;;;;;;;;;;5107216;28;20123;-44
2023/06/30 06:43:25;;;;;;;3.55;0.50;;;;;;;;;;5107057;28;20095;-46
2023/06/30 06:45:52;;;;;;;4.60;0.73;;;;;;;;;;5106876;28;20102;-44
2023/06/30 06:48:19;;;;;;;3.95;0.50;;;;;;;;;;5107146;28;20032;-44
2023/06/30 06:50:46;;;;;;;3.47;0.50;;;;;;;;;;5106679;28;20023;-45
2023/06/30 06:53:22;;;;;;;4.75;0.90;;;;;;;;;;5107249;28;20066;-43
2023/06/30 06:55:51;;;;;;;3.50;0.60;;;;;;;;;;5106672;28;20132;-44
2023/06/30 06:58:18;;;;;;;5.95;0.70;;;;;;;;;;5106766;28;20036;-44
2023/06/30 07:00:46;;;;;;;3.67;0.70;;;;;;;;;;5106722;28;20020;-45
2023/06/30 07:03:12;;;;;;;2.38;0.60;;;;;;;;;;5106703;28;20032;-47
2023/06/30 07:05:40;;;;;;;8.07;0.60;;;;;;;;;;5106435;28;20332;-43
2023/06/30 07:08:07;;;;;;;4.57;0.60;;;;;;;;;;5106737;28;20024;-43
2023/06/30 07:10:34;;;;;;;4.40;0.60;;;;;;;;;;5106384;28;20027;-50
2023/06/30 07:13:01;;;;;;;4.50;0.50;;;;;;;;;;5106370;28;20042;-44
2023/06/30 07:15:28;;;;;;;6.80;0.70;;;;;;;;;;5106353;28;20024;-43
2023/06/30 07:17:55;;;;;;;5.53;0.77;;;;;;;;;;5106296;28;20074;-48
2023/06/30 07:20:23;;;;;;;3.60;0.68;;;;;;;;;;5106113;28;20035;-46
2023/06/30 07:22:49;;;;;;;4.60;0.80;;;;;;;;;;5106201;28;20087;-45
2023/06/30 07:25:16;;;;;;;4.35;0.75;;;;;;;;;;5106285;28;20079;-45
2023/06/30 07:27:49;;;;;;;1.83;0.40;;;;;;;;;;5106044;28;20097;-49
2023/06/30 07:30:16;;;;;;;4.32;0.40;;;;;;;;;;5106284;28;20308;-49
2023/06/30 07:32:43;;;;;;;2.53;0.32;;;;;;;;;;5105933;28;20032;-46
2023/06/30 07:35:10;;;;;;;2.78;0.50;;;;;;;;;;5105809;28;20083;-49
2023/06/30 07:37:36;;;;;;;5.45;0.52;;;;;;;;;;5104754;28;20288;-43
2023/06/30 07:40:03;;;;;;;3.35;0.55;;;;;;;;;;5105817;28;20034;-43
2023/06/30 07:42:30;;;;;;;2.15;0.38;;;;;;;;;;5105703;28;20258;-47
2023/06/30 07:44:56;;;;;;;2.25;0.40;;;;;;;;;;5105650;28;20283;-43
2023/06/30 07:47:23;;;;;;;2.80;0.40;;;;;;;;;;5105874;28;20047;-44
2023/06/30 07:49:49;;;;;;;2.67;0.50;;;;;;;;;;5105559;28;20032;-53
2023/06/30 07:52:16;;;;;;;3.50;0.50;;;28.00;99.90;;;;;;5105610;28;20040;-44
2023/06/30 07:54:44;;;;;;;5.05;0.40;;;;;;;;;;5105722;28;20028;-43
2023/06/30 07:57:11;;;;;;;6.85;0.68;;;;;;;;;;5105298;28;20067;-44
2023/06/30 07:59:38;;;;;;;3.20;0.50;;;;;;;;;;5105685;28;20083;-45
2023/06/30 08:02:06;;;;;;;3.85;0.63;;;;;;;;;;5105465;28;20034;-45
2023/06/30 08:04:33;;;;;;;2.40;0.45;;;;;;;;;;5105118;28;20040;-49
2023/06/30 08:07:00;;;;;;;4.57;0.60;;;;;;;;;;5105326;28;20338;-55
2023/06/30 08:09:27;;;;;;;1.90;0.40;;;;;;;;;;5105813;28;20316;-53
2023/06/30 08:11:54;;;;;;;1.67;0.50;;;;;;;;;;5105116;28;20201;-53
2023/06/30 08:14:21;;;;;;;5.07;0.40;;;;;;;;;;5105736;28;20083;-52
2023/06/30 08:16:48;;;;;;;5.78;0.40;;;;;;;;;;5105162;28;20036;-53
2023/06/30 08:19:15;;;;;;;4.07;0.60;;;;;;;;;;5105438;28;20039;-54
2023/06/30 08:21:41;;;;;;;2.50;0.50;;;;;;;;;;5105099;28;20250;-53
2023/06/30 08:24:09;;;;;;;4.30;0.57;;;;;;;;;;5105369;28;20259;-53
2023/06/30 08:26:35;;;;;;;4.75;0.60;;;;;;;;;;5104884;28;20353;-53
2023/06/30 08:29:02;;;;;;;3.90;0.70;;;;;;;;;;5105371;28;20024;-53
2023/06/30 08:31:30;;;;;;;4.75;0.63;;;;;;;;;;5104923;28;20023;-52
2023/06/30 08:33:57;;;;;;;2.58;0.50;;;;;;;;;;5104719;28;20048;-53
2023/06/30 08:36:24;;;;;;;4.05;0.40;;;;;;;;;;5104773;28;20079;-46
2023/06/30 08:38:51;;;;;;;2.60;0.60;;;;;;;;;;5105235;28;20034;-43
2023/06/30 08:41:18;;;;;;;4.57;0.47;;;;;;;;;;5104643;28;20099;-46
2023/06/30 08:43:45;;;;;;;3.83;0.57;;;;;;;;;;5104899;28;20031;-42
2023/06/30 08:46:12;;;;;;;5.72;0.60;;;;;;;;;;5104694;28;20028;-42
2023/06/30 08:48:40;;;;;;;3.00;0.50;;;;;;;;;;5104867;28;20040;-43
2023/06/30 08:51:07;;;;;;;4.18;0.30;;;;;;;;;;5104537;28;20031;-43
2023/06/30 08:53:34;;;;;;;4.03;0.40;;;;;;;;;;5104378;28;20047;-44
2023/06/30 08:56:00;;;;;;;5.55;0.60;;;;;;;;;;5104442;28;20032;-46
2023/06/30 08:58:27;;;;;;;2.45;0.60;;;;;;;;;;5104725;28;20036;-44
2023/06/30 09:00:55;;;;;;;6.85;0.50;;;;;;;;;;5104332;28;20091;-44
2023/06/30 09:03:22;;;;;;;2.47;0.60;;;;;;;;;;5104326;28;20058;-50
2023/06/30 09:05:50;;;;;;;1.75;0.32;;;;;;;;;;5104358;28;20034;-47
2023/06/30 09:08:21;;;;;;;5.57;0.50;;;;;;;;;;5104510;28;20032;-44
2023/06/30 09:10:48;;;;;;;4.50;0.52;;;;;;;;;;5104092;28;20032;-43
2023/06/30 09:13:17;;;;;;;3.85;0.52;;;;;;;;;;5104358;28;20028;-44
2023/06/30 09:15:44;;;;;;;3.13;0.60;;;;;;;;;;5104370;28;20095;-47
2023/06/30 09:18:11;;;;;;;8.48;0.60;;;;;;;;;;5104036;28;20036;-43
2023/06/30 09:20:38;;;;;;;3.35;0.63;;;;;;;;;;5104037;28;20239;-44
2023/06/30 09:23:04;;;;;;;2.05;0.60;;;;;;;;;;5104459;28;20040;-49
2023/06/30 09:25:35;;;;;;;3.60;0.50;;;;;;;;;;5103836;28;20100;-43
2023/06/30 09:28:08;;;;;;;3.90;0.60;;;;;;;;;;5104162;28;20065;-43
2023/06/30 09:30:35;;;;;;;1.38;0.40;;;;;;;;;;5103942;28;20091;-44
2023/06/30 09:33:02;;;;;;;6.03;0.40;;;;;;;;;;5103711;28;20228;-42
2023/06/30 09:35:41;;;;;;;3.28;0.57;;;;;;;;;;5103962;28;20024;-43
2023/06/30 09:38:14;;;;;;;4.15;0.57;;;;;;;;;;5104021;28;20032;-47
2023/06/30 09:40:45;;;;;;;4.78;0.50;;;;;;;;;;5103898;28;20220;-45
2023/06/30 09:43:18;;;;;;;3.25;0.45;;;;;;;;;;5104111;28;20041;-45
2023/06/30 09:45:47;;;;;;;1.90;0.50;;;;;;;;;;5103767;28;20040;-44
2023/06/30 09:48:14;;;;;;;3.72;0.60;;;;;;;;;;5104043;28;20292;-45
2023/06/30 09:50:44;;;;;;;3.05;0.57;;;;;;;;;;5103968;28;20024;-45
2023/06/30 09:53:11;;;;;;;2.03;0.43;;;;;;;;;;5104005;28;20224;-44
2023/06/30 09:56:04;;;;;;;1.48;0.50;;;;;;;;;;5103898;28;20027;-44
2023/06/30 09:58:31;;;;;;;2.92;0.47;;;;;;;;;;5100641;28;20273;-45
2023/06/30 10:00:58;;;;;;;6.78;0.75;;;;;;;;;;5103811;28;20341;-43
2023/06/30 10:03:25;;;;;;;3.45;0.70;;;;;;;;;;5103801;28;20146;-42
2023/06/30 10:05:52;;;;;;;4.93;0.50;;;;;;;;;;5103873;28;20016;-42
2023/06/30 10:08:21;;;;;;;2.92;0.80;;;;;;;;;;5107895;28;20032;-42
2023/06/30 10:10:48;;;;;;;4.97;0.60;;;;;;;;;;5107476;28;20031;-44
2023/06/30 10:13:16;;;;;;;2.58;0.60;;;;;;;;;;5107797;28;20035;-47
2023/06/30 10:15:43;;;;;;;5.25;0.52;;;;;;;;;;5107608;28;20047;-41
2023/06/30 10:18:11;;;;;;;7.40;0.60;;;;;;;;;;5107521;28;20044;-41
2023/06/30 10:20:38;;;;;;;4.13;0.77;;;;;;;;;;5107183;28;20031;-48
2023/06/30 10:23:05;;;;;;;4.13;0.60;;;;;;;;;;5107832;28;20035;-43
2023/06/30 10:25:32;;;;;;;6.85;0.80;;;;;;;;;;5107158;28;20369;-44
2023/06/30 10:27:59;;;;;;;4.25;0.90;;;;;;;;;;5107532;28;20292;-43
2023/06/30 10:30:26;;;;;;;3.05;0.70;;;;;;;;;;5107164;28;20028;-42
2023/06/30 10:32:53;;;;;;;5.10;0.80;;;;;;;;;;5106895;28;20081;-42
2023/06/30 10:35:20;;;;;;;4.82;0.98;;;;;;;;;;5107211;28;20020;-45
2023/06/30 10:37:47;;;;;;;5.82;0.90;;;;;;;;;;5107357;28;20095;-41
2023/06/30 10:40:29;;;;;;;4.82;0.88;;;;;;;;;;5106870;28;20027;-43
2023/06/30 10:42:56;;;;;;;4.50;1.17;;;;;;;;;;5107168;28;20031;-46
2023/06/30 10:45:30;;;;;;;5.30;1.23;;;;;;;;;;5106991;28;20328;-43
2023/06/30 10:47:57;;;;;;;7.05;1.40;;;;;;;;;;5106905;28;20035;-44
2023/06/30 10:50:24;;;;;;;4.05;1.15;;;;;;;;;;5106781;28;20020;-48
2023/06/30 10:52:54;;;;;;;7.28;1.33;;;;;;;;;;5106752;28;20043;-50
2023/06/30 10:55:27;;;;;;;6.97;2.13;;;;;;;;;;5106977;28;20051;-43
2023/06/30 10:57:54;;;;;;;7.85;2.20;;;;;;;;;;5106018;28;20040;-42
2023/06/30 11:00:29;;;;;;;13.23;2.00;;;;;;;;;;5106536;28;20028;-42
2023/06/30 11:02:57;;;;;;;9.55;1.90;;;;;;;;;;5106578;28;20046;-45
2023/06/30 11:05:28;;;;;;;4.43;1.52;;;;;;;;;;5105656;28;20096;-45
2023/06/30 11:08:15;;;;;;;5.30;1.90;;;;;;;;;;5106355;28;20335;-46
2023/06/30 11:10:44;;;;;;;6.70;2.15;;;;;;;;;;5086155;28;20061;-49
2023/06/30 11:13:11;;;;;;;11.30;2.45;;;;;;;;;;5095680;28;20040;-48
2023/06/30 11:15:45;;;;;;;6.05;2.97;;;;;;;;;;5106419;28;20020;-45
2023/06/30 11:18:16;;;;;;;6.55;3.45;;;;;;;;;;5105979;28;20032;-50
2023/06/30 11:21:01;;;;;;;7.47;3.08;;;;;;;;;;5103887;28;20024;-55
2023/06/30 11:23:28;;;;;;;7.75;2.90;;;;;;;;;;5106126;28;20035;-51
2023/06/30 11:25:59;;;;;;;4.80;2.97;;;;;;;;;;5106213;28;20028;-51
2023/06/30 11:28:26;;;;;;;10.82;2.80;;;;;;;;;;5106382;28;20024;-51
2023/06/30 11:30:53;;;;;;;6.38;2.20;;;;;;;;;;5102309;28;20101;-52
2023/06/30 11:33:20;;;;;;;6.22;2.00;;;;;;;;;;5099696;28;20111;-51
2023/06/30 11:35:52;;;;;;;5.00;1.60;;;;;;;;;;5096822;28;20177;-43
2023/06/30 11:38:18;;;;;;;;;;;;;;;;;;5104230;28;20306;-43
2023/06/30 11:40:46;;;;;;;6.38;1.58;;;;;;;;;;5103118;28;19907;-49
2023/06/30 11:43:13;;;;;;;8.50;1.40;;;;;;;;;;5094257;28;20037;-43
2023/06/30 11:45:39;;;;;;;6.82;1.23;;;;;;;;;;5092252;28;20385;-43
2023/06/30 11:48:06;;;;;;;5.28;1.02;;;;;;;;;;5085604;28;20083;-48
2023/06/30 11:50:33;;;;;;;5.13;1.23;;;;;;;;;;5085164;28;20039;-47
2023/06/30 11:53:02;;;;;;;6.40;1.40;;;;;;;;;;5093743;28;20383;-49
2023/06/30 11:55:29;;;;;;;5.57;1.48;;;;;;;;;;5105500;28;20320;-47
2023/06/30 11:57:56;;;;;;;5.13;1.00;;;;;;;;;;5103660;28;20043;-43
2023/06/30 12:00:23;;;;;;;3.67;2.10;;;;;;;;;;5103787;28;20219;-43
2023/06/30 12:02:50;;;;;;;6.80;3.35;;;;;;;;;;5105470;28;20091;-41
2023/06/30 12:05:18;;;;;;;5.57;3.78;;;;;;;;;;5104519;28;20245;-54
2023/06/30 12:07:46;;;;;;;6.78;2.58;;;;;;;;;;5105212;28;20231;-46
2023/06/30 12:10:14;;;;;;;6.75;2.88;;;;;;;;;;5105173;28;20339;-48
2023/06/30 12:12:41;;;;;;;7.22;3.05;;;;;;;;;;5105220;28;20095;-45
2023/06/30 12:15:14;;;;;;;6.32;2.45;;;;;;;;;;5105045;28;20028;-49
2023/06/30 12:17:45;;;;;;;6.90;2.60;;;;;;;;;;5105126;28;20070;-44
2023/06/30 12:20:12;;;;;;;7.05;2.17;;;;;;;;;;5104879;28;20023;-52
2023/06/30 12:22:44;;;;;;;4.22;1.60;;;;;;;;;;5105076;28;20031;-48
2023/06/30 12:25:11;;;;;;;7.30;1.73;;;;;;;;;;5104917;28;20081;-52
2023/06/30 12:27:43;;;;;;;5.55;1.73;;;;;;;;;;5104803;28;20258;-45
2023/06/30 12:30:16;;;;;;;6.50;1.55;;;;;;;;;;5104458;28;20061;-48
2023/06/30 12:32:43;;;;;;;3.85;1.52;;;;;;;;;;5104912;28;20044;-48
2023/06/30 12:35:10;;;;;;;3.25;1.38;;;;;;;;;;5104579;28;20032;-54
2023/06/30 12:37:38;;;;;;;5.18;1.30;;;;;;;;;;5104709;28;20024;-45
2023/06/30 12:40:06;;;;;;;4.10;1.50;;;;;;;;;;5104633;28;20024;-50
2023/06/30 12:42:34;;;;;;;2.75;1.38;;;;;;;;;;5104611;28;20091;-52
2023/06/30 12:45:01;;;;;;;6.13;1.40;;;;;;;;;;5104589;28;20030;-54
2023/06/30 12:47:27;;;;;;;4.13;1.25;;;;;;;;;;5104561;28;20304;-54
2023/06/30 12:49:54;;;;;;;3.33;0.93;;;;;;;;;;5104460;28;20031;-53
2023/06/30 12:52:21;;;;;;;3.67;0.90;;;;;;;;;;5104533;28;20038;-56
2023/06/30 12:54:47;;;;;;;4.72;1.52;;;;;;;;;;5104417;28;20320;-57
2023/06/30 12:57:14;;;;;;;4.53;0.95;;;;;;;;;;5104255;28;20122;-55
2023/06/30 12:59:42;;;;;;;4.40;1.13;;;;;;;;;;5104526;28;20024;-56
2023/06/30 13:02:10;;;;;;;3.92;1.10;;;;;;;;;;5104326;28;20328;-53
2023/06/30 13:04:37;;;;;;;2.70;0.90;;;;;;;;;;5104042;28;20103;-53
2023/06/30 13:07:03;;;;;;;2.75;0.90;;;;;;;;;;5104319;28;20074;-57
2023/06/30 13:09:30;;;;;;;6.32;0.95;;;;;;;;;;5104516;28;20073;-54
2023/06/30 13:11:57;;;;;;;2.85;1.00;;;;;;;;;;5104119;28;20073;-54
2023/06/30 13:14:23;;;;;;;4.22;0.82;;;;;;;;;;5104668;28;20095;-54
2023/06/30 13:16:50;;;;;;;3.63;0.80;;;;;;;;;;5103207;28;20035;-53
2023/06/30 13:19:16;;;;;;;2.92;0.82;;;;;;;;;;5104489;28;20044;-57
2023/06/30 13:21:43;;;;;;;2.35;0.70;;;;;;;;;;5104271;28;20079;-57
2023/06/30 13:24:11;;;;;;;3.58;0.90;;;;;;;;;;5104464;28;20043;-56
2023/06/30 13:26:38;;;;;;;1.35;0.68;;;;;;;;;;5103858;28;20220;-53
2023/06/30 13:29:04;;;;;;;2.03;0.75;;;;;;;;;;5104540;28;20016;-57
2023/06/30 13:31:31;;;;;;;1.40;0.70;;;;;;;;;;5104070;28;20031;-55
2023/06/30 13:33:57;;;;;;;1.60;0.73;;;;;;;;;;5103809;28;20126;-53
2023/06/30 13:36:24;;;;;;;1.55;0.73;;;;;;;;;;5103931;28;20042;-58
2023/06/30 13:38:51;;;;;;;2.90;0.80;;;;;;;;;;5104279;28;20032;-57
2023/06/30 13:41:17;;;;;;;1.38;0.65;;;;;;;;;;5107905;28;20031;-53
2023/06/30 13:43:44;;;;;;;2.20;0.80;;;;;;;;;;5108441;28;20227;-50
2023/06/30 13:46:10;;;;;;;1.98;0.68;;;;;;;;;;5108129;28;20069;-48
2023/06/30 13:48:38;;;;;;;1.10;0.73;;;;;;;;;;5108222;28;20312;-47
2023/06/30 13:51:05;;;;;;;3.00;0.90;;;;;;;;;;5107941;28;20312;-49
2023/06/30 13:53:32;;;;;;;1.40;0.70;;;;;;;;;;5108229;28;20057;-45
2023/06/30 13:55:59;;;;;;;1.30;0.70;;;;;;;;;;5107855;28;20232;-49
2023/06/30 13:58:25;;;;;;;3.30;0.80;;;;;;;;;;5108163;28;20039;-45
2023/06/30 14:00:52;;;;;;;2.95;0.63;;;;;;;;;;5107821;28;20028;-52
2023/06/30 14:03:18;;;;;;;1.42;0.70;;;;;;;;;;5107950;28;20185;-51
2023/06/30 14:05:48;;;;;;;3.90;0.70;;;;;;;;;;5107862;28;20220;-51
2023/06/30 14:08:15;;;;;;;2.10;0.90;;;;;;;;;;5107928;28;20354;-50
2023/06/30 14:10:42;;;;;;;4.13;0.90;;;;;;;;;;5107463;28;20027;-44
2023/06/30 14:13:08;;;;;;;2.60;0.60;;;;;;;;;;5107915;28;20043;-44
2023/06/30 14:15:35;;;;;;;1.42;0.77;;;;;;;;;;5107477;28;20078;-53
2023/06/30 14:18:02;;;;;;;1.20;0.88;;;;;;;;;;5107790;28;20256;-47
2023/06/30 14:20:29;;;;;;;2.20;0.60;;;;;;;;;;5107276;28;20043;-51
2023/06/30 14:22:56;;;;;;;2.13;0.60;;;;;;;;;;5107603;28;20203;-48
2023/06/30 14:25:23;;;;;;;0.70;0.47;;;;;;;;;;5107277;28;20032;-48
2023/06/30 14:27:51;;;;;;;0.60;0.50;;;;;;;;;;5107680;28;20031;-48
2023/06/30 14:30:18;;;;;;;1.50;0.50;;;;;;;;;;5107165;28;20020;-50
2023/06/30 14:32:44;;;;;;;1.40;0.60;;;;;;;;;;5107197;28;20211;-55
2023/06/30 14:35:11;;;;;;;0.82;0.50;;;;;;;;;;5106911;28;20050;-47
2023/06/30 14:37:38;;;;;;;1.08;0.60;;;;;;;;;;5107145;28;20024;-44
2023/06/30 14:40:05;;;;;;;1.38;0.60;;;;;;;;;;5107142;28;20028;-44
2023/06/30 14:42:32;;;;;;;1.75;0.68;;;;;;;;;;5106855;28;20096;-53
2023/06/30 14:44:58;;;;;;;1.38;0.50;;;;;;;;;;5107049;28;20019;-46